Time;durP1;ratioP1;P1;durP2;ratioP2;P2;SDS_P1;SDS_P2;PMS_P1;PMS_P2;Temp;Humidity;BMP_temperature;BMP_pressure;BME280_temperature;BME280_humidity;BME280_pressure;Samples;Min_cycle;Max_cycle;Signal;HPM_P1;HPM_P2
2022/09/21 00:01:37;;;;;;;10.50;7.00;;;;;;;8.65;94.19;96922.52;108103;1268;22619;-80
2022/09/21 00:04:09;;;;;;;9.00;6.70;;;;;;;8.65;94.19;96923.00;108142;1268;26029;-81
2022/09/21 00:06:40;;;;;;;9.80;6.90;;;;;;;8.63;94.11;96922.14;108070;1270;22558;-80
2022/09/21 00:09:12;;;;;;;9.50;7.30;;;;;;;8.62;94.04;96925.04;108072;1268;26775;-80
2022/09/21 00:11:43;;;;;;;7.80;5.80;;;;;;;8.60;94.06;96920.55;108178;1268;22529;-80
2022/09/21 00:14:15;;;;;;;8.90;5.40;;;;;;;8.57;93.93;96917.66;108163;1268;22532;-81
2022/09/21 00:16:47;;;;;;;9.00;6.80;;;;;;;8.56;93.99;96917.97;108102;1269;24288;-80
2022/09/21 00:19:18;;;;;;;9.90;6.90;;;;;;;8.54;93.86;96923.24;107999;1270;37561;-80
2022/09/21 00:21:49;;;;;;;11.50;7.00;;;;;;;8.52;93.80;96919.39;108079;1270;22761;-81
2022/09/21 00:24:20;;;;;;;10.00;7.50;;;;;;;8.51;93.71;96922.19;108167;1268;23782;-81
2022/09/21 00:26:52;;;;;;;7.90;6.20;;;;;;;8.50;93.45;96923.14;108180;1268;22529;-80
2022/09/21 00:29:23;;;;;;;11.00;6.60;;;;;;;8.49;93.43;96925.93;108114;1268;37638;-80
2022/09/21 00:31:54;;;;;;;10.40;6.70;;;;;;;8.47;93.47;96925.66;108155;1268;22526;-81
2022/09/21 00:34:26;;;;;;;11.10;7.20;;;;;;;8.45;93.34;96922.23;108075;1270;22556;-80
2022/09/21 00:36:58;;;;;;;9.90;7.40;;;;;;;8.45;93.42;96932.67;108105;1270;22550;-81
2022/09/21 00:39:29;;;;;;;7.90;4.50;;;;;;;8.44;93.36;96925.27;108113;1268;30580;-81
2022/09/21 00:42:00;;;;;;;9.40;5.70;;;;;;;8.43;93.17;96928.48;108114;1270;22561;-81
2022/09/21 00:44:35;;;;;;;10.20;6.80;;;;;;;8.41;93.19;96927.09;108191;1268;22526;-81
2022/09/21 00:47:10;;;;;;;8.80;5.60;;;;;;;8.40;93.16;96928.24;108072;1270;22565;-81
2022/09/21 00:49:48;;;;;;;8.20;4.90;;;;;;;8.40;93.08;96927.45;107995;1270;28322;-81
2022/09/21 00:52:20;;;;;;;7.60;5.20;;;;;;;8.38;93.08;96930.58;108146;1266;22555;-81
2022/09/21 00:54:54;;;;;;;9.40;6.40;;;;;;;8.38;93.08;96928.67;108110;1270;23020;-81
2022/09/21 00:57:31;;;;;;;9.10;4.20;;;;;;;8.38;92.95;96930.73;108192;1268;22659;-82
2022/09/21 01:00:07;;;;;;;8.20;6.00;;;;;;;8.37;92.94;96926.08;108114;1268;24225;-81
2022/09/21 01:02:38;;;;;;;9.00;6.00;;;;;;;8.35;92.91;96933.58;108173;1268;22561;-81
2022/09/21 01:05:11;;;;;;;8.30;5.40;;;;;;;8.34;92.87;96935.55;108149;1268;22513;-81
2022/09/21 01:07:45;;;;;;;8.00;5.60;;;;;;;8.35;92.97;96936.31;108184;1268;23308;-81
2022/09/21 01:10:18;;;;;;;6.80;4.80;;;;;;;8.38;92.82;96935.85;108075;1268;32253;-81
2022/09/21 01:13:04;;;;;;;7.20;4.60;;;;;;;8.40;92.71;96938.66;108137;1265;22522;-81
2022/09/21 01:15:42;;;;;;;7.10;5.30;;;;;;;8.39;92.68;96935.17;108178;1268;22694;-81
2022/09/21 01:18:20;;;;;;;7.80;6.00;;;;;;;8.38;92.48;96938.45;108109;1268;25370;-81
2022/09/21 01:21:17;;;;;;;7.50;4.90;;;;;;;8.37;92.64;96940.29;108191;1268;25976;-80
2022/09/21 01:24:13;;;;;;;8.00;5.70;;;;;;;8.34;92.58;96942.64;108143;1268;22605;-81
2022/09/21 01:27:14;;;;;;;7.70;6.00;;;;;;;8.30;92.58;96944.80;108188;1268;22536;-81
2022/09/21 01:29:51;;;;;;;8.40;5.30;;;;;;;8.27;92.82;96951.44;108054;1270;31916;-80
2022/09/21 01:32:27;;;;;;;7.80;6.10;;;;;;;8.25;92.93;96954.39;108069;1270;22628;-80
2022/09/21 01:35:03;;;;;;;9.20;7.20;;;;;;;8.26;93.04;96955.29;108137;1270;22972;-80
2022/09/21 01:37:38;;;;;;;8.80;7.00;;;;;;;8.28;93.11;96958.27;108061;1270;24213;-81
2022/09/21 01:40:13;;;;;;;11.30;7.20;;;;;;;8.29;93.19;96957.20;108028;1268;24227;-81
2022/09/21 01:42:50;;;;;;;8.30;6.50;;;;;;;8.29;93.34;96957.80;108054;1270;146343;-80
2022/09/21 01:45:27;;;;;;;10.30;7.20;;;;;;;8.29;93.41;96952.55;108091;1270;22584;-80
2022/09/21 01:48:00;;;;;;;7.60;6.20;;;;;;;8.29;93.40;96952.98;108084;1270;22532;-81
2022/09/21 01:50:36;;;;;;;9.00;6.60;;;;;;;8.29;93.70;96947.75;107996;1270;28822;-81
2022/09/21 01:53:13;;;;;;;12.10;7.40;;;;;;;8.29;93.99;96949.82;108015;1270;22552;-80
2022/09/21 01:55:50;;;;;;;9.90;7.30;;;;;;;8.29;94.27;96951.13;108021;1270;25995;-81
2022/09/21 01:58:32;;;;;;;8.30;7.00;;;;;;;8.29;94.46;96946.48;108031;1270;25658;-80
2022/09/21 02:01:05;;;;;;;12.40;7.80;;;;;;;8.30;94.42;96952.31;108091;1270;23853;-80
2022/09/21 02:03:40;;;;;;;9.90;7.40;;;;;;;8.30;94.66;96950.15;108166;1270;22533;-81
2022/09/21 02:06:14;;;;;;;10.80;7.60;;;;;;;8.29;94.80;96951.39;108136;1270;22551;-81
2022/09/21 02:08:46;;;;;;;11.20;8.10;;;;;;;8.30;95.04;96949.56;108018;1270;24995;-80
2022/09/21 02:11:17;;;;;;;10.10;8.30;;;;;;;8.30;95.12;96953.27;108092;1270;22545;-80
2022/09/21 02:13:51;;;;;;;13.00;9.30;;;;;;;8.29;95.29;96954.73;108108;1270;22565;-80
2022/09/21 02:16:34;;;;;;;10.50;8.70;;;;;;;8.30;95.40;96958.66;108103;1270;22597;-80
2022/09/21 02:19:20;;;;;;;10.80;9.70;;;;;;;8.30;95.47;96961.35;108064;1270;26512;-80
2022/09/21 02:22:07;;;;;;;11.20;8.60;;;;;;;8.30;95.79;96959.71;108009;1270;22571;-80
2022/09/21 02:24:43;;;;;;;12.00;8.60;;;;;;;8.29;95.96;96954.31;108110;1270;25376;-80
2022/09/21 02:27:30;;;;;;;12.90;11.20;;;;;;;8.28;96.19;96958.58;108129;1270;22709;-80
2022/09/21 02:30:07;;;;;;;14.10;12.40;;;;;;;8.27;96.37;96959.15;108104;1268;25017;-80
2022/09/21 02:32:50;;;;;;;14.60;12.70;;;;;;;8.26;96.67;96957.56;108161;1268;22825;-80
2022/09/21 02:35:31;;;;;;;16.00;13.00;;;;;;;8.25;96.87;96958.46;108116;1269;22551;-81
2022/09/21 02:38:11;;;;;;;17.50;13.00;;;;;;;8.24;97.10;96953.17;108189;1268;22700;-80
2022/09/21 02:40:52;;;;;;;16.20;13.90;;;;;;;8.21;97.35;96953.80;108048;1270;25894;-80
2022/09/21 02:43:32;;;;;;;16.20;13.70;;;;;;;8.20;97.48;96957.16;108116;1270;24323;-80
2022/09/21 02:46:07;;;;;;;14.00;11.70;;;;;;;8.19;97.69;96955.74;108159;1268;22748;-80
2022/09/21 02:48:43;;;;;;;17.30;14.90;;;;;;;8.20;97.95;96958.91;108107;1268;27677;-80
2022/09/21 02:51:19;;;;;;;18.90;16.30;;;;;;;8.21;98.06;96960.08;108183;1268;22908;-80
2022/09/21 02:53:53;;;;;;;19.60;17.60;;;;;;;8.22;98.12;96963.98;108170;1268;23895;-80
2022/09/21 02:56:25;;;;;;;16.90;14.80;;;;;;;8.22;98.18;96962.40;108067;1270;22585;-80
2022/09/21 02:58:59;;;;;;;18.80;15.90;;;;;;;8.24;98.30;96965.90;108014;1270;27282;-80
2022/09/21 03:01:31;;;;;;;21.10;16.80;;;;;;;8.24;98.34;96964.27;108195;1268;22523;-80
2022/09/21 03:04:03;;;;;;;19.40;16.00;;;;;;;8.23;98.47;96963.84;108171;1268;22535;-80
2022/09/21 03:06:34;;;;;;;20.10;17.20;;;;;;;8.22;98.57;96964.94;108144;1268;22519;-81
2022/09/21 03:09:06;;;;;;;23.80;19.70;;;;;;;8.22;98.79;96962.35;108084;1268;24979;-81
2022/09/21 03:11:37;;;;;;;20.70;17.50;;;;;;;8.21;99.00;96966.68;108171;1269;22539;-80
2022/09/21 03:14:09;;;;;;;22.20;19.80;;;;;;;8.20;99.07;96967.52;108143;1270;22557;-80
2022/09/21 03:16:40;;;;;;;21.40;18.10;;;;;;;8.20;98.99;96964.93;108055;1270;22553;-80
2022/09/21 03:19:12;;;;;;;18.90;15.30;;;;;;;8.20;99.15;96963.34;107947;1270;27993;-80
2022/09/21 03:21:46;;;;;;;19.50;17.40;;;;;;;8.19;99.29;96968.79;108111;1270;22522;-80
2022/09/21 03:24:44;;;;;;;20.50;18.30;;;;;;;8.20;99.25;96969.73;108047;1270;25116;-80
2022/09/21 03:27:09;;;;;;;20.90;18.70;;;;;;;8.21;99.33;96972.33;108121;1270;22547;-80
2022/09/21 03:29:40;;;;;;;20.00;17.80;;;;;;;8.22;99.31;96976.73;108080;1268;30639;-80
2022/09/21 03:32:12;;;;;;;19.60;17.60;;;;;;;8.22;99.33;96971.02;108176;1268;22526;-80
2022/09/21 03:34:45;;;;;;;18.40;16.40;;;;;;;8.20;99.51;96973.39;108081;1269;22519;-80
2022/09/21 03:37:17;;;;;;;18.70;16.30;;;;;;;8.20;99.55;96976.13;108117;1270;25121;-80
2022/09/21 03:39:48;;;;;;;18.10;16.20;;;;;;;8.20;99.70;96984.85;108055;1270;49033;-81
2022/09/21 03:42:19;;;;;;;18.00;15.60;;;;;;;8.19;99.83;96989.11;108195;1270;22572;-81
2022/09/21 03:44:50;;;;;;;17.20;15.40;;;;;;;8.17;99.90;96986.09;108154;1268;22522;-81
2022/09/21 03:47:23;;;;;;;17.70;15.60;;;;;;;8.15;99.89;96987.80;108138;1268;22542;-81
2022/09/21 03:49:54;;;;;;;16.50;14.60;;;;;;;8.15;99.95;96984.89;108114;1268;24372;-80
2022/09/21 03:52:26;;;;;;;16.60;14.50;;;;;;;8.17;99.98;96994.64;108164;1268;23793;-81
2022/09/21 03:54:57;;;;;;;17.10;14.80;;;;;;;8.18;100.00;96990.64;108117;1270;22540;-81
2022/09/21 03:57:28;;;;;;;19.50;16.70;;;;;;;8.16;100.00;96986.96;108147;1268;23253;-81
2022/09/21 03:59:59;;;;;;;21.10;17.00;;;;;;;8.12;100.00;96995.97;108043;1270;27224;-80
2022/09/21 04:02:30;;;;;;;19.30;17.30;;;;;;;8.08;100.00;96996.32;108160;1268;22595;-80
2022/09/21 04:05:02;;;;;;;19.80;17.70;;;;;;;8.07;100.00;97000.02;108083;1270;23796;-80
2022/09/21 04:07:34;;;;;;;19.70;17.60;;;;;;;8.07;100.00;97001.96;108121;1268;22545;-81
2022/09/21 04:10:11;;;;;;;17.40;14.30;;;;;;;8.09;100.00;97001.49;108099;1270;23529;-80
2022/09/21 04:12:43;;;;;;;18.70;16.70;;;;;;;8.08;100.00;97000.55;108129;1270;22547;-80
2022/09/21 04:15:19;;;;;;;19.10;16.10;;;;;;;8.08;100.00;97003.13;108205;1268;22552;-80
2022/09/21 04:17:53;;;;;;;18.50;15.60;;;;;;;8.07;100.00;97005.34;108136;1270;22729;-81
2022/09/21 04:20:24;;;;;;;19.80;17.30;;;;;;;8.06;100.00;97007.77;108099;1268;26450;-80
2022/09/21 04:22:56;;;;;;;17.60;15.70;;;;;;;8.06;100.00;97009.92;108137;1270;26008;-80
2022/09/21 04:25:30;;;;;;;19.80;17.60;;;;;;;8.06;100.00;97017.11;108208;1268;24260;-80
2022/09/21 04:28:01;;;;;;;20.40;18.00;;;;;;;8.04;100.00;97020.90;108129;1270;22540;-80
2022/09/21 04:30:33;;;;;;;21.00;18.70;;;;;;;8.05;100.00;97015.41;108072;1270;22683;-80
2022/09/21 04:33:04;;;;;;;20.60;18.10;;;;;;;8.04;100.00;97021.11;108143;1268;22575;-80
2022/09/21 04:35:36;;;;;;;17.10;15.30;;;;;;;8.05;100.00;97018.27;108181;1269;22555;-80
2022/09/21 04:38:07;;;;;;;24.10;21.50;;;;;;;8.04;100.00;97020.38;108111;1269;22692;-81
2022/09/21 04:40:39;;;;;;;17.00;12.60;;;;;;;8.01;100.00;97018.48;108122;1268;25273;-81
2022/09/21 04:43:10;;;;;;;23.90;20.90;;;;;;;7.97;100.00;97025.15;108111;1270;23344;-81
2022/09/21 04:45:41;;;;;;;23.10;20.80;;;;;;;7.91;100.00;97029.92;108100;1270;25379;-81
2022/09/21 04:48:12;;;;;;;23.80;20.20;;;;;;;7.92;100.00;97026.86;108055;1270;22625;-81
2022/09/21 04:50:43;;;;;;;23.40;20.40;;;;;;;7.89;100.00;97026.27;108104;1268;22975;-81
2022/09/21 04:53:14;;;;;;;25.30;21.50;;;;;;;7.89;100.00;97031.60;108176;1268;22887;-81
2022/09/21 04:55:46;;;;;;;25.50;22.80;;;;;;;7.90;100.00;97030.70;108135;1270;23865;-81
2022/09/21 04:58:18;;;;;;;26.10;22.00;;;;;;;7.89;100.00;97032.65;108097;1270;23923;-81
2022/09/21 05:00:50;;;;;;;21.70;19.40;;;;;;;7.89;100.00;97033.59;108146;1268;22548;-81
2022/09/21 05:03:22;;;;;;;22.00;19.50;;;;;;;7.90;100.00;97029.13;108125;1270;25307;-81
2022/09/21 05:05:55;;;;;;;21.60;18.80;;;;;;;7.91;100.00;97033.04;108035;1270;22609;-81
2022/09/21 05:11:14;;;;;;;22.50;19.90;;;;;;;7.91;100.00;97037.63;108154;1268;22656;-81
2022/09/21 05:13:46;;;;;;;24.10;19.40;;;;;;;7.92;100.00;97047.92;108072;1269;22557;-81
2022/09/21 05:16:19;;;;;;;21.60;18.60;;;;;;;7.91;100.00;97049.77;108069;1270;22554;-81
2022/09/21 05:18:53;;;;;;;22.10;17.90;;;;;;;7.92;100.00;97044.29;108129;1268;24153;-80
2022/09/21 05:21:24;;;;;;;22.70;19.00;;;;;;;7.92;100.00;97045.81;108052;1270;25306;-81
2022/09/21 05:23:56;;;;;;;21.50;18.90;;;;;;;7.90;100.00;97045.54;108163;1268;22705;-81
2022/09/21 05:26:27;;;;;;;21.30;16.40;;;;;;;7.91;100.00;97049.77;108163;1268;22720;-81
2022/09/21 05:29:04;;;;;;;23.10;19.20;;;;;;;7.89;100.00;97053.02;107183;1268;1212887;-80
2022/09/21 05:31:42;;;;;;;22.90;19.40;;;;;;;7.89;100.00;97065.65;108143;1268;22538;-81
2022/09/21 05:34:28;;;;;;;21.40;18.60;;;;;;;7.90;100.00;97056.09;108177;1268;22582;-81
2022/09/21 05:37:06;;;;;;;25.40;20.40;;;;;;;7.89;100.00;97055.24;108135;1268;23928;-81
2022/09/21 05:39:38;;;;;;;22.70;17.90;;;;;;;7.89;100.00;97057.52;108080;1270;24470;-81
2022/09/21 05:42:11;;;;;;;20.70;17.40;;;;;;;7.91;100.00;97063.07;108225;1268;24236;-81
2022/09/21 05:44:44;;;;;;;22.90;20.50;;;;;;;7.92;100.00;97061.19;108219;1268;22550;-81
2022/09/21 05:47:26;;;;;;;20.40;14.00;;;;;;;7.92;100.00;97062.41;108093;1270;23840;-81
2022/09/21 05:50:15;;;;;;;17.40;14.40;;;;;;;7.93;100.00;97066.46;108048;1270;28359;-81
2022/09/21 05:52:54;;;;;;;20.50;16.40;;;;;;;7.96;100.00;97063.53;108191;1269;22549;-81
2022/09/21 05:55:36;;;;;;;23.40;18.80;;;;;;;7.99;100.00;97061.19;108077;1270;22529;-81
2022/09/21 05:58:18;;;;;;;17.30;13.60;;;;;;;8.01;100.00;97058.46;108065;1270;22650;-81
2022/09/21 06:01:02;;;;;;;21.40;18.00;;;;;;;8.03;100.00;97061.44;108179;1268;22563;-81
2022/09/21 06:03:36;;;;;;;16.40;12.60;;;;;;;7.99;100.00;97060.55;108148;1268;22566;-81
2022/09/21 06:06:09;;;;;;;22.10;17.30;;;;;;;7.99;100.00;97062.81;108176;1268;22822;-81
2022/09/21 06:08:40;;;;;;;19.50;16.00;;;;;;;7.98;100.00;97068.73;108068;1269;24468;-80
2022/09/21 06:11:12;;;;;;;20.60;15.80;;;;;;;8.00;100.00;97067.73;108158;1270;24235;-81
2022/09/21 06:13:43;;;;;;;20.40;17.60;;;;;;;8.02;100.00;97071.35;108114;1270;22847;-80
2022/09/21 06:16:14;;;;;;;19.80;14.30;;;;;;;8.04;100.00;97069.12;108175;1268;23475;-81
2022/09/21 06:18:46;;;;;;;18.10;15.40;;;;;;;8.05;100.00;97073.61;107972;1268;26194;-80
2022/09/21 06:21:17;;;;;;;16.80;15.00;;;;;;;8.08;100.00;97071.57;108151;1268;22527;-81
2022/09/21 06:23:48;;;;;;;15.90;13.20;;;;;;;8.10;100.00;97072.43;108145;1268;22557;-81
2022/09/21 06:26:19;;;;;;;16.00;13.10;;;;;;;8.11;100.00;97072.69;108119;1270;22539;-81
2022/09/21 06:28:50;;;;;;;15.30;13.60;;;;;;;8.12;100.00;97072.55;108027;1270;25472;-80
2022/09/21 06:31:21;;;;;;;15.90;13.40;;;;;;;8.16;100.00;97071.52;108117;1268;22544;-81
2022/09/21 06:33:53;;;;;;;15.40;13.10;;;;;;;8.16;100.00;97071.37;108171;1269;24286;-81
2022/09/21 06:36:24;;;;;;;16.60;12.40;;;;;;;8.17;100.00;97075.25;108094;1270;22667;-80
2022/09/21 06:38:55;;;;;;;17.80;15.10;;;;;;;8.17;100.00;97079.48;108054;1270;27333;-80
2022/09/21 06:41:26;;;;;;;15.60;13.10;;;;;;;8.21;100.00;97083.99;108143;1268;22540;-81
2022/09/21 06:43:58;;;;;;;12.10;9.90;;;;;;;8.24;100.00;97079.74;108139;1268;22800;-81
2022/09/21 06:46:29;;;;;;;14.10;12.20;;;;;;;8.26;100.00;97083.34;108160;1268;22552;-80
2022/09/21 06:49:00;;;;;;;13.20;10.80;;;;;;;8.26;100.00;97085.51;108095;1268;30711;-80
2022/09/21 06:51:31;;;;;;;14.40;11.90;;;;;;;8.26;100.00;97090.69;108067;1268;23134;-81
2022/09/21 06:54:02;;;;;;;12.80;10.70;;;;;;;8.28;100.00;97094.29;108089;1270;22552;-81
2022/09/21 06:56:36;;;;;;;13.50;11.90;;;;;;;8.32;100.00;97100.32;108142;1268;23828;-80
2022/09/21 06:59:07;;;;;;;12.20;10.90;;;;;;;8.39;100.00;97104.30;108116;1268;25965;-80
2022/09/21 07:01:38;;;;;;;14.10;11.30;;;;;;;8.47;100.00;97101.89;108126;1270;24241;-81
2022/09/21 07:04:10;;;;;;;12.80;11.50;;;;;;;8.50;100.00;97107.67;108164;1268;23974;-81
2022/09/21 07:06:41;;;;;;;12.40;10.00;;;;;;;8.49;100.00;97110.20;108169;1268;22626;-81
2022/09/21 07:09:15;;;;;;;12.80;11.10;;;;;;;8.46;100.00;97108.44;108080;1268;31969;-81
2022/09/21 07:11:47;;;;;;;14.00;10.30;;;;;;;8.43;100.00;97108.23;108140;1268;22536;-81
2022/09/21 07:14:18;;;;;;;14.30;11.20;;;;;;;8.41;100.00;97105.69;108112;1270;24375;-81
2022/09/21 07:16:49;;;;;;;13.60;11.00;;;;;;;8.38;100.00;97111.90;108118;1267;22570;-81
2022/09/21 07:19:20;;;;;;;12.10;10.60;;;;;;;8.43;100.00;97113.10;108041;1270;29124;-81
2022/09/21 07:21:52;;;;;;;11.50;10.00;;;;;;;8.49;100.00;97109.89;108179;1268;23039;-81
2022/09/21 07:24:24;;;;;;;13.60;11.60;;;;;;;8.50;100.00;97113.76;108080;1270;22560;-81
2022/09/21 07:26:55;;;;;;;11.70;10.00;;;;;;;8.47;100.00;97115.05;108090;1270;22756;-81
2022/09/21 07:29:26;;;;;;;13.60;10.40;;;;;;;8.42;100.00;97118.69;108100;1268;31667;-80
2022/09/21 07:31:58;;;;;;;13.70;11.90;;;;;;;8.46;100.00;97120.84;108166;1269;22598;-81
2022/09/21 07:34:29;;;;;;;11.30;9.00;;;;;;;8.52;100.00;97116.35;108115;1270;22538;-81
2022/09/21 07:37:01;;;;;;;11.40;10.20;;;;;;;8.58;100.00;97119.50;108175;1268;24231;-81
2022/09/21 07:39:32;;;;;;;13.80;11.00;;;;;;;8.62;100.00;97122.05;108067;1268;27021;-81
2022/09/21 07:42:03;;;;;;;14.30;11.20;;;;;;;8.58;100.00;97123.48;108111;1270;22656;-81
2022/09/21 07:44:35;;;;;;;13.70;11.20;;;;;;;8.55;100.00;97126.25;108120;1270;22526;-81
2022/09/21 07:47:07;;;;;;;14.70;12.20;;;;;;;8.54;100.00;97125.19;108112;1270;22622;-81
2022/09/21 07:49:38;;;;;;;14.60;11.50;;;;;;;8.52;100.00;97124.80;108081;1270;33264;-81
2022/09/21 07:52:09;;;;;;;13.50;11.60;;;;;;;8.52;100.00;97123.54;108083;1270;23955;-81
2022/09/21 07:54:40;;;;;;;13.70;11.70;;;;;;;8.53;100.00;97129.58;108164;1270;22618;-81
2022/09/21 08:00:00;;;;;;;13.50;11.70;;;;;;;8.68;100.00;97132.12;108066;1270;39515;-81
2022/09/21 08:02:31;;;;;;;13.90;11.70;;;;;;;8.78;100.00;97131.68;108140;1270;23792;-81
2022/09/21 08:05:02;;;;;;;13.10;10.50;;;;;;;8.81;100.00;97133.55;108103;1268;22559;-80
2022/09/21 08:07:35;;;;;;;13.30;11.80;;;;;;;8.71;100.00;97134.63;108095;1270;24241;-81
2022/09/21 08:10:07;;;;;;;12.40;11.10;;;;;;;8.66;100.00;97134.33;108038;1268;34943;-81
2022/09/21 08:12:39;;;;;;;13.90;11.00;;;;;;;8.67;100.00;97139.56;108147;1270;23780;-81
2022/09/21 08:15:13;;;;;;;13.40;10.20;;;;;;;8.60;100.00;97126.94;108138;1269;22984;-81
2022/09/21 08:17:44;;;;;;;13.70;11.30;;;;;;;8.55;100.00;97127.99;108200;1268;22555;-81
2022/09/21 08:20:17;;;;;;;10.20;7.50;;;;;;;8.51;100.00;97126.23;108125;1268;28329;-81
2022/09/21 08:22:48;;;;;;;13.50;10.40;;;;;;;8.46;100.00;97134.38;108098;1270;22752;-81
2022/09/21 08:25:19;;;;;;;14.80;12.00;;;;;;;8.44;100.00;97136.95;108183;1270;22613;-81
2022/09/21 08:27:51;;;;;;;11.90;10.40;;;;;;;8.45;100.00;97135.52;108202;1268;25370;-80
2022/09/21 08:30:22;;;;;;;12.30;10.70;;;;;;;8.47;100.00;97137.09;108121;1268;26338;-80
2022/09/21 08:32:56;;;;;;;12.80;11.20;;;;;;;8.50;100.00;97143.40;108207;1270;22625;-80
2022/09/21 08:35:27;;;;;;;12.30;11.00;;;;;;;8.54;100.00;97140.25;108143;1270;24136;-81
2022/09/21 08:37:58;;;;;;;11.40;10.10;;;;;;;8.56;100.00;97145.39;108263;1267;22664;-81
2022/09/21 08:40:30;;;;;;;13.30;11.20;;;;;;;8.61;100.00;97143.48;108053;1270;32027;-81
2022/09/21 08:43:09;;;;;;;13.90;11.40;;;;;;;8.59;100.00;97145.10;108209;1268;24228;-80
2022/09/21 08:45:44;;;;;;;14.00;11.30;;;;;;;8.65;100.00;97141.83;108162;1268;22550;-81
2022/09/21 08:48:23;;;;;;;11.80;10.50;;;;;;;8.70;100.00;97147.20;108118;1270;22648;-81
2022/09/21 08:50:57;;;;;;;12.50;10.40;;;;;;;8.70;100.00;97141.54;108252;1268;22930;-80
2022/09/21 08:53:34;;;;;;;11.60;9.90;;;;;;;8.70;100.00;97148.63;108157;1268;24431;-81
2022/09/21 08:56:09;;;;;;;12.30;9.90;;;;;;;8.78;100.00;97144.95;108301;1268;22641;-81
2022/09/21 08:58:42;;;;;;;11.30;10.10;;;;;;;8.84;100.00;97147.55;108203;1267;38870;-81
2022/09/21 09:01:39;;;;;;;13.80;10.60;;;;;;;8.87;100.00;97143.38;108161;1268;22630;-81
2022/09/21 09:04:40;;;;;;;11.70;10.50;;;;;;;8.92;100.00;97142.93;108300;1268;24242;-80
2022/09/21 09:07:29;;;;;;;11.40;10.20;;;;;;;8.86;100.00;97144.61;108279;1267;22545;-81
2022/09/21 09:10:18;;;;;;;12.70;10.70;;;;;;;8.90;100.00;97147.10;108145;1267;29737;-81
2022/09/21 09:13:03;;;;;;;10.50;9.20;;;;;;;9.00;100.00;97147.15;108164;1270;23324;-81
2022/09/21 09:15:57;;;;;;;11.50;10.20;;;;;;;9.07;100.00;97140.75;108188;1269;22515;-81
2022/09/21 09:18:35;;;;;;;11.40;9.30;;;;;;;9.06;100.00;97145.72;108079;1270;34148;-80
2022/09/21 09:21:15;;;;;;;11.80;9.80;;;;;;;9.02;100.00;97144.69;108156;1269;22622;-81
2022/09/21 09:23:51;;;;;;;11.60;9.80;;;;;;;9.02;100.00;97144.58;108211;1268;22558;-81
2022/09/21 09:26:28;;;;;;;11.30;9.40;;;;;;;9.10;100.00;97146.16;108061;1270;24137;-81
2022/09/21 09:29:02;;;;;;;9.30;7.70;;;;;;;9.17;100.00;97146.91;108036;1270;31137;-81
2022/09/21 09:31:38;;;;;;;9.20;8.20;;;;;;;9.17;99.93;97148.23;108088;1270;23944;-80
2022/09/21 09:34:15;;;;;;;10.10;7.60;;;;;;;9.22;99.96;97143.91;108088;1269;24950;-80
2022/09/21 09:36:50;;;;;;;8.60;7.30;;;;;;;9.29;99.85;97140.77;108102;1270;22542;-80
2022/09/21 09:39:22;;;;;;;9.30;7.10;;;;;;;9.34;99.42;97141.70;108049;1270;29930;-80
2022/09/21 09:42:24;;;;;;;10.10;7.80;;;;;;;9.31;98.81;97140.85;108171;1270;24262;-80
2022/09/21 09:45:28;;;;;;;8.00;6.20;;;;;;;9.16;98.38;97138.48;108094;1270;22506;-81
2022/09/21 09:48:13;;;;;;;8.20;5.40;;;;;;;9.08;98.50;97145.25;108099;1270;22562;-80
2022/09/21 09:50:45;;;;;;;10.10;8.10;;;;;;;9.03;98.34;97150.88;108052;1270;28815;-80
2022/09/21 09:53:20;;;;;;;8.70;6.70;;;;;;;9.05;98.61;97152.76;108057;1270;22653;-81
2022/09/21 09:55:53;;;;;;;9.30;7.10;;;;;;;9.05;98.62;97152.33;108140;1268;22556;-81
2022/09/21 09:58:36;;;;;;;21.50;14.50;;;;;;;9.07;98.54;97149.42;108081;1268;33188;-80
2022/09/21 10:01:08;;;;;;;17.40;11.70;;;;;;;9.01;98.30;97153.83;108124;1268;23818;-81
2022/09/21 10:03:39;;;;;;;9.80;7.10;;;;;;;8.95;98.11;97154.48;108101;1270;22543;-80
2022/09/21 10:06:30;;;;;;;7.60;6.10;;;;;;;8.98;98.40;97151.15;108162;1270;25661;-81
2022/09/21 10:09:01;;;;;;;8.70;6.90;;;;;;;9.01;98.28;97146.42;108040;1270;32642;-81
2022/09/21 10:11:38;;;;;;;8.80;6.50;;;;;;;9.00;98.33;97149.90;108136;1270;22641;-81
2022/09/21 10:14:18;;;;;;;8.60;7.10;;;;;;;9.01;98.35;97153.29;108120;1270;22649;-81
2022/09/21 10:16:51;;;;;;;8.60;7.40;;;;;;;9.03;98.31;97157.39;108090;1270;22602;-81
2022/09/21 10:19:26;;;;;;;8.70;6.90;;;;;;;9.08;98.14;97156.41;108118;1270;25325;-81
2022/09/21 10:22:00;;;;;;;8.10;6.60;;;;;;;9.10;97.90;97156.73;108100;1270;25378;-81
2022/09/21 10:24:34;;;;;;;8.00;6.30;;;;;;;9.10;97.89;97155.05;108161;1268;23252;-81
2022/09/21 10:27:12;;;;;;;10.70;7.50;;;;;;;9.19;97.95;97153.64;108173;1270;22631;-81
2022/09/21 10:29:45;;;;;;;9.50;7.50;;;;;;;9.17;97.61;97155.59;108066;1270;27340;-81
2022/09/21 10:32:28;;;;;;;9.60;7.80;;;;;;;9.30;98.18;97147.98;108179;1268;22530;-81
2022/09/21 10:35:20;;;;;;;11.40;8.60;;;;;;;9.38;97.74;97151.09;108155;1270;23993;-81
2022/09/21 10:38:11;;;;;;;12.60;10.50;;;;;;;9.43;97.69;97150.80;108177;1268;23253;-81
2022/09/21 10:40:45;;;;;;;8.60;6.90;;;;;;;9.37;97.39;97151.02;108067;1270;28185;-81
2022/09/21 10:43:31;;;;;;;9.50;6.80;;;;;;;9.26;97.62;97153.09;108090;1270;24204;-81
2022/09/21 10:46:04;;;;;;;9.10;7.80;;;;;;;9.21;98.08;97165.23;108093;1270;22564;-81
2022/09/21 10:48:36;;;;;;;8.10;5.50;;;;;;;9.29;98.52;97162.20;108149;1268;33650;-81
2022/09/21 10:51:21;;;;;;;8.90;6.90;;;;;;;9.27;97.99;97164.05;108109;1270;22662;-81
2022/09/21 10:53:55;;;;;;;10.00;7.10;;;;;;;9.29;98.17;97159.79;108128;1270;22535;-81
2022/09/21 10:56:27;;;;;;;8.10;6.10;;;;;;;9.22;97.73;97148.03;108139;1270;22566;-81
2022/09/21 10:59:23;;;;;;;7.80;6.60;;;;;;;9.11;98.02;97158.23;108070;1270;31777;-81
2022/09/21 11:01:56;;;;;;;9.20;7.20;;;;;;;9.10;98.42;97157.27;108253;1267;23091;-81
2022/09/21 11:04:47;;;;;;;8.60;6.60;;;;;;;9.13;98.68;97150.10;108226;1268;23707;-81
2022/09/21 11:07:25;;;;;;;8.40;6.40;;;;;;;9.19;98.79;97161.63;108224;1267;22669;-81
2022/09/21 11:10:03;;;;;;;8.20;6.50;;;;;;;9.34;99.31;97156.46;108154;1268;30379;-81
2022/09/21 11:12:49;;;;;;;8.60;6.90;;;;;;;9.48;99.12;97150.24;108228;1268;22605;-81
2022/09/21 11:15:33;;;;;;;9.10;5.90;;;;;;;9.50;98.61;97146.50;108162;1268;22585;-81
2022/09/21 11:18:13;;;;;;;8.50;6.80;;;;;;;9.42;98.17;97146.83;108288;1267;22583;-81
2022/09/21 11:20:52;;;;;;;10.30;6.20;;;;;;;9.38;98.37;97148.23;108107;1267;29322;-81
2022/09/21 11:23:36;;;;;;;9.70;7.20;;;;;;;9.43;98.28;97149.21;108208;1268;22570;-81
2022/09/21 11:26:15;;;;;;;8.20;6.80;;;;;;;9.65;98.99;97146.40;108244;1268;22526;-81
2022/09/21 11:28:49;;;;;;;7.90;6.30;;;;;;;9.81;98.64;97148.47;108141;1267;41420;-81
2022/09/21 11:31:41;;;;;;;6.30;5.60;;;;;;;9.87;98.35;97151.58;108198;1267;22569;-82
2022/09/21 11:34:39;;;;;;;6.10;5.40;;;;;;;9.79;97.79;97153.92;108258;1267;22711;-82
2022/09/21 11:37:20;;;;;;;8.30;6.20;;;;;;;9.77;97.86;97155.77;108201;1267;23890;-81
2022/09/21 11:40:06;;;;;;;8.40;6.50;;;;;;;9.76;98.02;97153.64;108194;1267;31728;-81
2022/09/21 11:42:56;;;;;;;7.70;6.20;;;;;;;9.77;98.21;97150.84;108224;1268;22551;-82
2022/09/21 11:45:48;;;;;;;7.60;5.70;;;;;;;9.75;98.17;97149.09;108250;1267;22728;-82
2022/09/21 11:48:35;;;;;;;5.50;3.50;;;;;;;9.63;97.90;97135.69;108201;1268;22624;-81
2022/09/21 11:51:24;;;;;;;8.00;7.10;;;;;;;9.45;98.46;97144.89;108241;1267;24266;-81
2022/09/21 11:54:30;;;;;;;7.00;6.30;;;;;;;9.57;99.41;97151.19;108272;1268;22528;-81
2022/09/21 11:57:10;;;;;;;7.60;6.70;;;;;;;9.78;99.34;97146.56;108158;1268;23378;-81
2022/09/21 11:59:59;;;;;;;7.60;6.70;;;;;;;9.91;99.19;97147.08;108170;1268;38497;-81
2022/09/21 12:02:51;;;;;;;8.10;7.30;;;;;;;10.05;99.27;97150.20;108161;1270;22553;-82
2022/09/21 12:05:29;;;;;;;8.40;6.40;;;;;;;10.25;99.58;97148.56;108173;1268;22526;-81